AA5372 / N543EA 7700 Squawk Report (3rd of August, 2021)

Aircraft CRJ7 Reg No. N543EA Age N/A
Model Regional-Jet Jet engines 2 First flight N/A
Registered 03-20 Rollout N/A Delivered 23-03-11
Construction No. 10323 Line No. N/A Series 700
ADSHEX A6E376 Airline name Envoy Air Owner PSA Airlines
Airfield based Charlotte-Douglas~NC~N First tracked N/A

Flight history for N543EA

Route Flight No Date Playback
Wilmington Intl (ILM) - Philadelphia Intl (PHL) AA5120 2021-09-17 17:16:00
Norfolk Intl (ORF) - Philadelphia Intl (PHL) AA5546 2021-09-17 11:33:00
Philadelphia Intl (PHL) - Norfolk Intl (ORF) AA5571 2021-09-17 10:40:00
Philadelphia Intl (PHL) - Syracuse Hancock Intl (SYR) - Philadelphia Intl (PHL) AA5496 2021-09-16 21:02:00
Ronald Reagan Washington Natl (DCA) - Philadelphia Intl (PHL) AA5596 2021-09-16 16:41:00
Ronald Reagan Washington Natl (DCA) - Piedmont Triad (GSO) - Ronald Reagan Washington Natl (DCA) AA5237 2021-09-16 15:17:00
Gerald R Ford Intl (GRR) - Ronald Reagan Washington Natl (DCA) AA5409 2021-09-16 11:56:00
Charlotte Douglas (CLT) - Richmond Intl (RIC) - Charlotte Douglas (CLT) AA5027 2021-09-16 10:36:00
Ronald Reagan Washington Natl (DCA) - Gerald R Ford Intl (GRR) AA5021 2021-09-16 02:27:00
James M Cox Dayton Intl (DAY) - Ronald Reagan Washington Natl (DCA) AA5037 2021-09-16 01:14:00
Ronald Reagan Washington Natl (DCA) - James M Cox Dayton Intl (DAY) AA5284 2021-09-15 23:20:00
Ronald Reagan Washington Natl (DCA) - Wilmington Intl (ILM) - Ronald Reagan Washington Natl (DCA) AA5317 2021-09-15 21:12:00
Ronald Reagan Washington Natl (DCA) - Norfolk Intl (ORF) - Ronald Reagan Washington Natl (DCA) AA5265 2021-09-15 16:57:00
Tallahassee Rgnl (TLH) - Ronald Reagan Washington Natl (DCA) AA5082 2021-09-15 13:25:00
Charlotte Douglas (CLT) - Tallahassee Rgnl (TLH) AA5400 2021-09-14 23:21:00
Charlotte Douglas (CLT) - Tallahassee Rgnl (TLH) - Charlotte Douglas (CLT) AA5534 2021-09-14 19:17:00
Northwest Florida Beaches (ECP) - Charlotte Douglas (CLT) AA5028 2021-09-14 13:09:00
Charlotte Douglas (CLT) - Northwest Florida Beaches (ECP) AA5248 2021-09-14 01:58:00
Columbia Metropolitan (CAE) - Charlotte Douglas (CLT) AA5564 2021-09-13 19:24:00
James M Cox Dayton Intl (DAY) - Charlotte Douglas (CLT) N/A 2021-09-13 16:07:00
Time Lat Lon Altitude Heading Speed Vertical Rate
2021-08-03 16:13:29 GMT 35.226440 -80.940170 0 265 17 0
2021-08-03 16:13:28 GMT 35.226360 -80.940750 0 265 17 0
2021-08-03 16:13:27 GMT 35.226391 -80.940567 0 265 17 0
2021-08-03 16:13:25 GMT 35.226398 -80.940483 0 265 17 0
2021-08-03 16:13:23 GMT 35.226429 -80.940292 0 265 17 0
2021-08-03 16:13:22 GMT 35.226410 -80.940292 0 277 22 0
2021-08-03 16:13:21 GMT 35.226421 -80.940170 0 277 22 0
2021-08-03 16:13:19 GMT 35.226662 -80.939827 0 302 21 0
2021-08-03 16:13:17 GMT 35.226540 -80.939529 0 306 20 0
2021-08-03 16:13:15 GMT 35.226501 -80.939453 0 308 21 0
2021-08-03 16:13:14 GMT 35.226398 -80.939201 0 321 19 0
2021-08-03 16:13:12 GMT 35.226372 -80.939171 0 325 24 0
2021-08-03 16:13:11 GMT 35.226341 -80.938957 0 338 25 0
2021-08-03 16:13:09 GMT 35.226238 -80.938911 0 338 25 0
2021-08-03 16:13:08 GMT 35.226151 -80.938850 0 338 26 0
2021-08-03 16:13:06 GMT 35.225910 -80.938766 0 331 22 0
2021-08-03 16:13:05 GMT 35.225811 -80.938690 0 332 21 0
2021-08-03 16:13:04 GMT 35.225689 -80.938667 0 319 19 0
2021-08-03 16:13:02 GMT 35.225521 -80.938530 0 311 15 0
2021-08-03 16:13:01 GMT 35.225471 -80.938507 0 308 17 0
2021-08-03 16:13:00 GMT 35.225368 -80.938347 0 306 15 0
2021-08-03 16:12:58 GMT 35.225269 -80.938278 0 295 18 0
2021-08-03 16:12:56 GMT 35.225231 -80.938118 0 306 13 0
2021-08-03 16:12:55 GMT 35.225182 -80.938004 0 310 14 0
2021-08-03 16:12:53 GMT 35.225109 -80.937958 0 298 14 0
2021-08-03 16:12:51 GMT 35.225040 -80.937790 0 319 9 0
2021-08-03 16:12:50 GMT 35.225021 -80.937729 0 321 9 0
2021-08-03 16:12:49 GMT 35.224979 -80.937653 0 336 12 0
2021-08-03 16:12:47 GMT 35.224911 -80.937592 0 340 8 0
2021-08-03 16:12:46 GMT 35.224892 -80.937599 0 339 11 0
2021-08-03 16:12:44 GMT 35.224789 -80.937523 0 350 10 0
2021-08-03 16:12:43 GMT 35.224770 -80.937500 0 359 12 0
2021-08-03 16:12:41 GMT 35.224640 -80.937477 0 356 8 0
2021-08-03 16:12:39 GMT 35.224548 -80.937492 0 348 8 0
2021-08-03 16:12:38 GMT 35.224491 -80.937508 0 340 7 0
2021-08-03 16:12:37 GMT 35.224461 -80.937469 0 356 10 0
2021-08-03 16:12:35 GMT 35.224430 -80.937431 0 356 12 0
2021-08-03 16:12:34 GMT 35.224312 -80.937469 0 349 11 0
2021-08-03 16:12:32 GMT 35.224319 -80.937401 0 1 17 0
2021-08-03 16:12:30 GMT 35.224129 -80.937431 0 352 12 0
2021-08-03 16:12:29 GMT 35.224041 -80.937370 0 4 17 0
2021-08-03 16:12:27 GMT 35.223961 -80.937378 0 2 17 0
2021-08-03 16:12:25 GMT 35.223820 -80.937401 0 358 18 0
2021-08-03 16:12:24 GMT 35.223740 -80.937393 0 359 19 0
2021-08-03 16:12:23 GMT 35.223560 -80.937393 0 358 19 0
2021-08-03 16:12:21 GMT 35.223461 -80.937378 0 359 18 0
2021-08-03 16:12:20 GMT 35.223389 -80.937378 0 357 20 0
2021-08-03 16:12:18 GMT 35.223209 -80.937370 0 356 19 0
2021-08-03 16:12:17 GMT 35.223110 -80.937401 0 350 19 0
2021-08-03 16:12:15 GMT 35.222980 -80.937340 0 354 25 0
2021-08-03 16:12:14 GMT 35.222851 -80.937332 0 353 23 0
2021-08-03 16:12:13 GMT 35.222729 -80.937309 0 354 21 0
2021-08-03 16:12:12 GMT 35.222641 -80.937317 0 351 23 0
2021-08-03 16:12:10 GMT 35.222488 -80.937218 0 5 26 0
2021-08-03 16:12:09 GMT 35.222382 -80.937248 0 2 27 0
2021-08-03 16:12:07 GMT 35.222118 -80.937302 0 353 24 0
2021-08-03 16:12:06 GMT 35.222031 -80.937271 0 356 24 0
2021-08-03 16:12:05 GMT 35.221802 -80.937233 0 0 24 0
2021-08-03 16:12:03 GMT 35.221680 -80.937241 0 357 23 0
2021-08-03 16:12:01 GMT 35.221458 -80.937218 0 357 22 0
2021-08-03 16:12:00 GMT 35.221359 -80.937241 0 352 21 0
2021-08-03 16:11:59 GMT 35.221241 -80.937248 0 348 19 0
2021-08-03 16:11:57 GMT 35.221081 -80.937180 0 356 20 0
2021-08-03 16:11:56 GMT 35.220989 -80.937172 0 356 20 0
2021-08-03 16:11:55 GMT 35.220779 -80.937149 0 358 16 0
2021-08-03 16:11:53 GMT 35.220711 -80.937157 0 353 17 0
2021-08-03 16:11:52 GMT 35.220638 -80.937141 0 356 18 0
2021-08-03 16:11:50 GMT 35.220470 -80.937172 0 346 18 0
2021-08-03 16:11:49 GMT 35.220409 -80.937149 0 350 18 0
2021-08-03 16:11:47 GMT 35.220242 -80.937080 0 6 17 0
2021-08-03 16:11:46 GMT 35.220169 -80.937134 0 356 17 0
2021-08-03 16:11:45 GMT 35.220009 -80.937088 0 17 14 0
2021-08-03 16:11:43 GMT 35.219971 -80.937111 0 20 17 0
2021-08-03 16:11:42 GMT 35.219879 -80.937134 0 25 16 0
2021-08-03 16:11:41 GMT 35.219799 -80.937141 0 40 16 0
2021-08-03 16:11:40 GMT 35.219669 -80.937263 0 42 15 0
2021-08-03 16:11:37 GMT 35.219521 -80.937431 0 45 14 0
2021-08-03 16:11:35 GMT 35.219471 -80.937477 0 44 13 0
2021-08-03 16:11:34 GMT 35.219429 -80.937531 0 46 13 0
2021-08-03 16:11:32 GMT 35.219341 -80.937637 0 50 13 0
2021-08-03 16:11:31 GMT 35.219280 -80.937683 0 55 13 0
2021-08-03 16:11:29 GMT 35.219238 -80.937813 0 46 14 0
2021-08-03 16:11:27 GMT 35.219120 -80.937943 0 52 10 0
2021-08-03 16:11:26 GMT 35.219101 -80.937988 0 51 11 0
2021-08-03 16:11:23 GMT 35.218990 -80.938133 0 47 9 0
2021-08-03 16:11:22 GMT 35.218960 -80.938164 0 48 8 0
2021-08-03 16:11:20 GMT 35.218861 -80.938263 0 57 6 0
2021-08-03 16:11:18 GMT 35.218868 -80.938301 0 43 6 0
2021-08-03 16:11:17 GMT 35.218849 -80.938332 0 41 5 0
2021-08-03 16:11:16 GMT 35.218842 -80.938347 0 38 6 0
2021-08-03 16:11:14 GMT 35.218800 -80.938400 0 36 5 0
2021-08-03 16:11:13 GMT 35.218788 -80.938400 0 60 7 0
2021-08-03 16:11:11 GMT 35.218712 -80.938400 0 79 9 0
2021-08-03 16:11:10 GMT 35.218731 -80.938461 0 61 9 0
2021-08-03 16:11:09 GMT 35.218731 -80.938522 0 52 8 0
2021-08-03 16:11:07 GMT 35.218681 -80.938591 0 54 8 0
2021-08-03 16:11:06 GMT 35.218651 -80.938637 0 50 7 0
2021-08-03 16:11:04 GMT 35.218651 -80.938728 0 55 9 0
2021-08-03 16:11:03 GMT 35.218571 -80.938721 0 58 7 0
2021-08-03 16:11:01 GMT 35.218529 -80.938797 0 57 4 0
2021-08-03 16:11:00 GMT 35.218529 -80.938820 0 53 5 0
2021-08-03 16:10:58 GMT 35.218498 -80.938881 0 48 4 0
2021-08-03 16:10:57 GMT 35.218491 -80.938889 0 53 4 0
2021-08-03 16:10:55 GMT 35.218441 -80.938927 0 62 0 0
2021-08-03 16:10:54 GMT 35.218430 -80.938927 0 63 1 0
2021-08-03 16:10:52 GMT 35.218430 -80.938911 0 60 2 0
2021-08-03 16:10:51 GMT 35.218441 -80.938911 0 57 2 0
2021-08-03 16:10:50 GMT 35.218441 -80.938927 0 52 2 0
2021-08-03 16:10:47 GMT 35.218449 -80.938942 0 53 1 0
2021-08-03 16:10:45 GMT 35.218430 -80.938927 0 57 4 0
2021-08-03 16:10:44 GMT 35.218430 -80.938942 0 52 7 0
2021-08-03 16:10:42 GMT 35.218418 -80.939011 0 37 10 0
2021-08-03 16:10:41 GMT 35.218410 -80.939079 0 40 11 0
2021-08-03 16:10:39 GMT 35.218300 -80.939087 0 53 16 0
2021-08-03 16:10:38 GMT 35.218288 -80.939140 0 48 19 0
2021-08-03 16:10:36 GMT 35.218189 -80.939270 0 50 21 0
2021-08-03 16:10:35 GMT 35.218170 -80.939392 0 40 22 0
2021-08-03 16:10:33 GMT 35.218021 -80.939552 0 41 23 0
2021-08-03 16:10:32 GMT 35.217911 -80.939629 0 49 21 0
2021-08-03 16:10:30 GMT 35.217789 -80.939812 0 48 20 0
2021-08-03 16:10:29 GMT 35.217682 -80.939941 0 50 23 0
2021-08-03 16:10:27 GMT 35.217579 -80.940041 0 58 21 0
2021-08-03 16:10:26 GMT 35.217491 -80.940247 0 51 20 0
2021-08-03 16:10:24 GMT 35.217449 -80.940361 0 42 21 0
2021-08-03 16:10:23 GMT 35.217319 -80.940514 0 45 22 0
2021-08-03 16:10:21 GMT 35.217220 -80.940590 0 51 21 0
2021-08-03 16:10:20 GMT 35.217140 -80.940666 0 56 20 0
2021-08-03 16:10:18 GMT 35.217049 -80.940887 0 47 19 0
2021-08-03 16:10:17 GMT 35.216930 -80.941048 0 45 19 0
2021-08-03 16:10:15 GMT 35.216869 -80.941109 0 47 21 0
2021-08-03 16:10:14 GMT 35.216721 -80.941299 0 51 17 0
2021-08-03 16:10:12 GMT 35.216709 -80.941360 0 47 20 0
2021-08-03 16:10:11 GMT 35.216572 -80.941513 0 50 21 0
2021-08-03 16:10:09 GMT 35.216499 -80.941612 0 50 20 0
2021-08-03 16:10:07 GMT 35.216381 -80.941772 0 51 23 0
2021-08-03 16:10:06 GMT 35.216339 -80.941872 0 46 26 0
2021-08-03 16:10:05 GMT 35.216251 -80.942001 0 46 23 0
2021-08-03 16:10:03 GMT 35.216110 -80.942169 0 44 27 0
2021-08-03 16:10:01 GMT 35.215919 -80.942390 0 46 25 0
2021-08-03 16:10:00 GMT 35.215839 -80.942497 0 48 24 0
2021-08-03 16:09:59 GMT 35.215759 -80.942589 0 48 25 0
2021-08-03 16:09:57 GMT 35.215599 -80.942802 0 49 26 0
2021-08-03 16:09:56 GMT 35.215439 -80.943031 0 49 25 0
2021-08-03 16:09:54 GMT 35.215340 -80.943123 0 55 24 0
2021-08-03 16:09:52 GMT 35.215229 -80.943329 0 52 26 0
2021-08-03 16:09:51 GMT 35.215199 -80.943466 0 44 28 0
2021-08-03 16:09:50 GMT 35.215099 -80.943573 0 46 28 0
2021-08-03 16:09:48 GMT 35.214939 -80.943787 0 44 30 0
2021-08-03 16:09:47 GMT 35.214741 -80.944031 0 46 28 0
2021-08-03 16:09:45 GMT 35.214611 -80.944130 0 54 26 0
2021-08-03 16:09:44 GMT 35.214470 -80.944412 0 47 23 0
2021-08-03 16:09:42 GMT 35.214401 -80.944511 0 47 23 0
2021-08-03 16:09:40 GMT 35.214279 -80.944687 0 46 26 0
2021-08-03 16:09:39 GMT 35.214191 -80.944794 0 48 27 0
2021-08-03 16:09:38 GMT 35.214111 -80.944908 0 46 27 0
2021-08-03 16:09:37 GMT 35.213951 -80.945160 0 43 26 0
2021-08-03 16:09:35 GMT 35.213860 -80.945259 0 45 25 0
2021-08-03 16:09:34 GMT 35.213772 -80.945374 0 48 24 0
2021-08-03 16:09:31 GMT 35.213531 -80.945671 0 63 24 0
2021-08-03 16:09:30 GMT 35.213470 -80.945793 0 65 24 0
2021-08-03 16:09:29 GMT 35.213379 -80.946007 0 69 26 0
2021-08-03 16:09:27 GMT 35.213341 -80.946136 0 68 28 0
2021-08-03 16:09:26 GMT 35.213291 -80.946320 0 65 24 0
2021-08-03 16:09:24 GMT 35.213188 -80.946579 0 71 24 0
2021-08-03 16:09:23 GMT 35.213161 -80.946732 0 71 22 0
2021-08-03 16:09:22 GMT 35.213112 -80.946800 0 78 26 0
2021-08-03 16:09:20 GMT 35.213058 -80.947060 0 72 27 0
2021-08-03 16:09:19 GMT 35.213051 -80.947243 0 64 25 0
2021-08-03 16:09:18 GMT 35.213020 -80.947388 0 57 25 0
2021-08-03 16:09:17 GMT 35.212891 -80.947632 0 56 25 0
2021-08-03 16:09:15 GMT 35.212830 -80.947762 0 54 24 0
2021-08-03 16:09:14 GMT 35.212761 -80.947868 0 53 24 0
2021-08-03 16:09:12 GMT 35.212631 -80.948090 0 50 23 0
2021-08-03 16:09:11 GMT 35.212582 -80.948189 0 48 25 0
2021-08-03 16:09:09 GMT 35.212410 -80.948402 0 52 25 0
2021-08-03 16:09:08 GMT 35.212349 -80.948509 0 51 24 0
2021-08-03 16:09:07 GMT 35.212280 -80.948601 0 52 25 0
2021-08-03 16:09:06 GMT 35.212200 -80.948738 0 48 24 0
2021-08-03 16:09:03 GMT 35.211979 -80.949028 0 63 24 0
2021-08-03 16:09:02 GMT 35.211922 -80.949158 0 64 24 0
2021-08-03 16:09:01 GMT 35.211830 -80.949379 0 70 26 0
2021-08-03 16:08:59 GMT 35.211761 -80.949509 0 77 26 0
2021-08-03 16:08:58 GMT 35.211731 -80.949654 0 78 25 0
2021-08-03 16:08:56 GMT 35.211689 -80.949951 0 77 22 0
2021-08-03 16:08:55 GMT 35.211670 -80.950073 0 78 24 0
2021-08-03 16:08:53 GMT 35.211601 -80.950317 0 89 25 0
2021-08-03 16:08:52 GMT 35.211609 -80.950462 0 88 25 0
2021-08-03 16:08:51 GMT 35.211609 -80.950729 0 83 27 0
2021-08-03 16:08:49 GMT 35.211601 -80.950882 0 84 26 0
2021-08-03 16:08:48 GMT 35.211578 -80.951019 0 86 28 0
2021-08-03 16:08:46 GMT 35.211559 -80.951370 0 87 23 0
2021-08-03 16:08:45 GMT 35.211540 -80.951622 0 87 25 0
2021-08-03 16:08:43 GMT 35.211559 -80.951759 0 80 26 0
2021-08-03 16:08:41 GMT 35.211510 -80.952049 0 86 24 0
2021-08-03 16:08:40 GMT 35.211498 -80.952179 0 85 25 0
2021-08-03 16:08:39 GMT 35.211510 -80.952477 0 74 25 0
2021-08-03 16:08:37 GMT 35.211498 -80.952621 0 75 24 0
2021-08-03 16:08:35 GMT 35.211449 -80.952827 0 85 25 0
2021-08-03 16:08:34 GMT 35.211418 -80.952957 0 96 25 0
2021-08-03 16:08:33 GMT 35.211411 -80.953232 0 115 23 0
2021-08-03 16:08:30 GMT 35.211491 -80.953484 0 131 21 0
2021-08-03 16:08:29 GMT 35.211552 -80.953598 0 141 20 0
2021-08-03 16:08:28 GMT 35.211689 -80.953796 0 170 19 0
2021-08-03 16:08:26 GMT 35.211769 -80.953812 0 171 20 0
2021-08-03 16:08:25 GMT 35.211941 -80.953857 0 178 24 0
2021-08-03 16:08:23 GMT 35.212029 -80.953873 0 178 25 0
2021-08-03 16:08:22 GMT 35.212158 -80.953857 0 176 25 0
2021-08-03 16:08:21 GMT 35.212360 -80.953888 0 178 30 0
2021-08-03 16:08:19 GMT 35.212490 -80.953857 0 174 30 0
2021-08-03 16:08:17 GMT 35.212780 -80.953934 0 178 29 0
2021-08-03 16:08:16 GMT 35.212910 -80.953918 0 177 29 0
2021-08-03 16:08:15 GMT 35.213039 -80.953918 0 175 30 0
2021-08-03 16:08:14 GMT 35.213181 -80.953934 0 174 30 0
2021-08-03 16:08:12 GMT 35.213459 -80.953949 0 171 28 0
2021-08-03 16:08:11 GMT 35.213589 -80.954002 0 176 27 0
2021-08-03 16:07:58 GMT 35.215389 -80.954132 0 174 31 0
2021-08-03 16:07:56 GMT 35.215679 -80.954193 0 178 30 0
2021-08-03 16:07:54 GMT 35.215961 -80.954201 0 176 31 0
2021-08-03 16:07:53 GMT 35.216099 -80.954231 0 179 32 0
2021-08-03 16:07:51 GMT 35.216400 -80.954193 0 172 31 0
2021-08-03 16:07:50 GMT 35.216690 -80.954239 0 175 29 0
2021-08-03 16:07:48 GMT 35.216839 -80.954247 0 172 26 0
2021-08-03 16:07:47 GMT 35.217072 -80.954292 0 175 28 0
2021-08-03 16:07:45 GMT 35.217201 -80.954300 0 175 27 0
2021-08-03 16:07:43 GMT 35.217449 -80.954323 0 172 27 0
2021-08-03 16:07:42 GMT 35.217579 -80.954361 0 175 27 0
2021-08-03 16:07:41 GMT 35.217709 -80.954361 0 173 26 0
2021-08-03 16:07:39 GMT 35.217949 -80.954376 0 176 25 0
2021-08-03 16:07:38 GMT 35.218079 -80.954422 0 180 22 0
2021-08-03 16:07:37 GMT 35.218288 -80.954407 0 178 22 0
2021-08-03 16:07:35 GMT 35.218391 -80.954407 0 177 25 0
2021-08-03 16:07:34 GMT 35.218521 -80.954399 0 174 24 0
2021-08-03 16:07:32 GMT 35.218750 -80.954399 0 170 23 0
2021-08-03 16:07:31 GMT 35.218861 -80.954437 0 173 22 0
2021-08-03 16:07:29 GMT 35.219059 -80.954483 0 176 20 0
2021-08-03 16:07:28 GMT 35.219151 -80.954491 0 177 22 0
2021-08-03 16:07:26 GMT 35.219360 -80.954460 0 168 19 0
2021-08-03 16:07:25 GMT 35.219460 -80.954521 0 178 16 0
2021-08-03 16:07:24 GMT 35.219608 -80.954536 0 182 18 0
2021-08-03 16:07:22 GMT 35.219688 -80.954536 0 180 18 0
2021-08-03 16:07:21 GMT 35.219860 -80.954521 0 177 16 0
2021-08-03 16:07:19 GMT 35.219940 -80.954529 0 177 16 0
2021-08-03 16:07:17 GMT 35.220100 -80.954529 0 174 15 0
2021-08-03 16:07:16 GMT 35.220169 -80.954536 0 172 14 0
2021-08-03 16:07:15 GMT 35.220299 -80.954536 0 169 12 0
2021-08-03 16:07:13 GMT 35.220360 -80.954590 0 180 11 0
2021-08-03 16:07:12 GMT 35.220470 -80.954590 0 176 9 0
2021-08-03 16:07:10 GMT 35.220501 -80.954567 0 168 11 0
2021-08-03 16:07:08 GMT 35.220589 -80.954597 0 167 11 0
2021-08-03 16:07:07 GMT 35.220680 -80.954620 0 163 5 0
2021-08-03 16:07:06 GMT 35.220711 -80.954628 0 165 4 0
2021-08-03 16:07:03 GMT 35.220791 -80.954628 0 143 4 0
2021-08-03 16:07:02 GMT 35.220810 -80.954643 0 147 3 0
2021-08-03 16:07:01 GMT 35.220810 -80.954697 0 146 2 0
2021-08-03 16:06:59 GMT 35.220840 -80.954712 0 137 2 0
2021-08-03 16:06:57 GMT 35.220829 -80.954674 0 140 4 0
2021-08-03 16:06:56 GMT 35.220798 -80.954720 0 136 5 0
2021-08-03 16:06:55 GMT 35.220860 -80.954697 0 100 8 0
2021-08-03 16:06:53 GMT 35.220852 -80.954750 0 102 10 0
2021-08-03 16:06:52 GMT 35.220860 -80.954819 0 103 10 0
2021-08-03 16:06:50 GMT 35.220871 -80.954872 0 98 18 0
2021-08-03 16:06:49 GMT 35.220890 -80.954948 0 94 21 0
2021-08-03 16:06:48 GMT 35.220921 -80.955063 0 87 22 0
2021-08-03 16:06:47 GMT 35.220921 -80.955299 0 89 21 0
2021-08-03 16:06:45 GMT 35.220909 -80.955399 0 88 24 0
2021-08-03 16:06:44 GMT 35.220921 -80.955528 0 84 25 0
2021-08-03 16:06:43 GMT 35.220901 -80.955818 0 87 23 0
2021-08-03 16:06:41 GMT 35.220909 -80.955971 0 83 22 0
2021-08-03 16:06:39 GMT 35.220890 -80.956169 0 83 25 0
2021-08-03 16:06:38 GMT 35.220852 -80.956329 0 87 25 0
2021-08-03 16:06:36 GMT 35.220829 -80.956627 0 88 21 0
2021-08-03 16:06:35 GMT 35.220860 -80.956749 0 80 21 0
2021-08-03 16:06:34 GMT 35.220852 -80.956871 0 79 21 0
2021-08-03 16:06:32 GMT 35.220779 -80.957024 0 88 28 0
2021-08-03 16:06:31 GMT 35.220772 -80.957153 0 88 30 0
2021-08-03 16:06:30 GMT 35.220760 -80.957527 0 90 25 0
2021-08-03 16:06:28 GMT 35.220779 -80.957710 0 84 22 0
2021-08-03 16:06:27 GMT 35.220798 -80.957809 0 79 25 0
2021-08-03 16:06:25 GMT 35.220749 -80.958076 0 85 25 0
2021-08-03 16:06:24 GMT 35.220730 -80.958237 0 88 22 0
2021-08-03 16:06:23 GMT 35.220730 -80.958458 0 84 23 0
2021-08-03 16:06:21 GMT 35.220718 -80.958580 0 83 24 0
2021-08-03 16:06:20 GMT 35.220669 -80.958862 0 92 24 0
2021-08-03 16:06:18 GMT 35.220669 -80.959000 0 91 23 0
2021-08-03 16:06:17 GMT 35.220661 -80.959106 0 93 24 0
2021-08-03 16:06:16 GMT 35.220699 -80.959389 0 83 22 0
2021-08-03 16:06:14 GMT 35.220692 -80.959488 0 84 25 0
2021-08-03 16:06:12 GMT 35.220669 -80.959801 0 83 23 0
2021-08-03 16:06:11 GMT 35.220631 -80.960052 0 87 24 0
2021-08-03 16:06:09 GMT 35.220631 -80.960182 0 86 23 0
2021-08-03 16:06:08 GMT 35.220619 -80.960442 0 83 23 0
2021-08-03 16:06:06 GMT 35.220600 -80.960716 0 84 22 0
2021-08-03 16:06:05 GMT 35.220600 -80.960854 0 83 21 0
2021-08-03 16:06:03 GMT 35.220581 -80.960983 0 87 20 0
2021-08-03 16:06:02 GMT 35.220581 -80.961197 0 83 22 0
2021-08-03 16:06:00 GMT 35.220558 -80.961342 0 85 20 0
2021-08-03 16:05:59 GMT 35.220539 -80.961571 0 87 19 0
2021-08-03 16:05:57 GMT 35.220520 -80.961700 0 90 18 0
2021-08-03 16:05:55 GMT 35.220531 -80.961906 0 86 18 0
2021-08-03 16:05:54 GMT 35.220520 -80.962120 0 83 17 0
2021-08-03 16:05:52 GMT 35.220490 -80.962227 0 90 16 0
2021-08-03 16:05:51 GMT 35.220501 -80.962311 0 88 16 0
2021-08-03 16:05:49 GMT 35.220501 -80.962502 0 82 15 0
2021-08-03 16:05:48 GMT 35.220470 -80.962608 0 89 13 0
2021-08-03 16:05:46 GMT 35.220490 -80.962738 0 80 14 0
2021-08-03 16:05:45 GMT 35.220470 -80.962830 0 85 12 0
2021-08-03 16:05:43 GMT 35.220451 -80.962952 0 90 13 0
2021-08-03 16:05:42 GMT 35.220459 -80.963043 0 87 12 0
2021-08-03 16:05:41 GMT 35.220451 -80.963203 0 84 9 0
2021-08-03 16:05:39 GMT 35.220459 -80.963226 0 79 11 0
2021-08-03 16:05:37 GMT 35.220451 -80.963364 0 89 8 0
2021-08-03 16:05:36 GMT 35.220409 -80.963417 0 91 7 0
2021-08-03 16:05:34 GMT 35.220428 -80.963493 0 93 8 0
2021-08-03 16:05:33 GMT 35.220402 -80.963547 0 96 7 0
2021-08-03 16:05:31 GMT 35.220440 -80.963608 0 78 9 0
2021-08-03 16:05:29 GMT 35.220421 -80.963699 0 81 12 0
2021-08-03 16:05:28 GMT 35.220421 -80.963753 0 80 13 0
2021-08-03 16:05:26 GMT 35.220390 -80.963898 0 86 14 0
2021-08-03 16:05:25 GMT 35.220371 -80.964012 0 93 11 0
2021-08-03 16:05:23 GMT 35.220402 -80.964119 0 83 13 0
2021-08-03 16:05:21 GMT 35.220390 -80.964249 0 80 14 0
2021-08-03 16:05:20 GMT 35.220371 -80.964439 0 78 11 0
2021-08-03 16:05:18 GMT 35.220360 -80.964508 0 74 10 0
2021-08-03 16:05:16 GMT 35.220360 -80.964630 0 60 10 0
2021-08-03 16:05:15 GMT 35.220341 -80.964684 0 59 10 0
2021-08-03 16:05:13 GMT 35.220291 -80.964798 0 54 9 0
2021-08-03 16:05:11 GMT 35.220249 -80.964890 0 40 9 0
2021-08-03 16:05:09 GMT 35.220188 -80.964989 0 26 7 0
2021-08-03 16:05:08 GMT 35.220161 -80.965012 0 30 7 0
2021-08-03 16:05:07 GMT 35.220139 -80.965012 0 32 8 0
2021-08-03 16:05:05 GMT 35.220039 -80.965103 0 29 0 0
2021-08-03 16:05:04 GMT 35.220020 -80.965111 0 29 0 0
2021-08-03 16:05:03 GMT 35.220020 -80.965134 0 24 6 0
2021-08-03 16:05:01 GMT 35.220058 -80.965088 0 25 14 0
2021-08-03 16:04:59 GMT 35.219990 -80.965134 0 26 23 0
2021-08-03 16:04:57 GMT 35.219810 -80.965240 0 25 25 0
2021-08-03 16:04:56 GMT 35.219700 -80.965309 0 24 24 0
2021-08-03 16:04:55 GMT 35.219601 -80.965363 0 25 25 0
2021-08-03 16:04:53 GMT 35.219391 -80.965446 0 32 25 0
2021-08-03 16:04:51 GMT 35.219189 -80.965584 0 34 25 0
2021-08-03 16:04:50 GMT 35.219082 -80.965652 0 34 25 0
2021-08-03 16:04:48 GMT 35.218899 -80.965813 0 29 27 0
2021-08-03 16:04:47 GMT 35.218811 -80.965889 0 25 29 0
2021-08-03 16:04:46 GMT 35.218681 -80.965958 0 24 30 0
2021-08-03 16:04:45 GMT 35.218410 -80.966072 0 24 32 0
2021-08-03 16:04:43 GMT 35.218281 -80.966148 0 22 34 0
2021-08-03 16:04:42 GMT 35.218151 -80.966217 0 20 35 0
2021-08-03 16:04:40 GMT 35.217838 -80.966362 0 13 39 0
2021-08-03 16:04:39 GMT 35.217670 -80.966408 0 12 41 0
2021-08-03 16:04:37 GMT 35.217300 -80.966499 0 6 43 0
2021-08-03 16:04:36 GMT 35.217098 -80.966614 0 359 44 0
2021-08-03 16:04:34 GMT 35.216679 -80.966591 0 359 49 0
2021-08-03 16:04:33 GMT 35.216228 -80.966599 0 357 55 0
2021-08-03 16:04:31 GMT 35.215981 -80.966637 0 354 58 0
2021-08-03 16:04:30 GMT 35.215721 -80.966614 0 354 60 0
2021-08-03 16:04:28 GMT 35.215130 -80.966499 0 357 61 0
2021-08-03 16:04:27 GMT 35.214901 -80.966522 0 354 67 0
2021-08-03 16:04:25 GMT 35.214249 -80.966469 0 355 68 0
2021-08-03 16:04:23 GMT 35.213619 -80.966377 0 356 74 0
2021-08-03 16:04:22 GMT 35.213299 -80.966347 0 356 78 0
2021-08-03 16:04:21 GMT 35.212940 -80.966316 0 356 79 0
2021-08-03 16:04:19 GMT 35.212189 -80.966278 0 356 82 0
2021-08-03 16:04:18 GMT 35.211411 -80.966209 625 356 84 0
2021-08-03 16:04:16 GMT 35.211060 -80.966179 625 356 94 0
2021-08-03 16:04:15 GMT 35.210629 -80.966164 625 356 94 0
2021-08-03 16:04:14 GMT 35.209801 -80.966087 625 356 107 0
2021-08-03 16:04:12 GMT 35.209309 -80.966042 625 356 109 0
2021-08-03 16:04:11 GMT 35.208851 -80.965981 625 357 114 0
2021-08-03 16:04:09 GMT 35.207840 -80.965919 625 356 121 0
2021-08-03 16:04:08 GMT 35.207291 -80.965919 625 355 123 -864
2021-08-03 16:04:06 GMT 35.206211 -80.965782 650 356 130 -864
2021-08-03 16:04:05 GMT 35.205601 -80.965729 650 356 129 -864
2021-08-03 16:04:03 GMT 35.204441 -80.965637 650 355 131 -864
2021-08-03 16:04:02 GMT 35.203838 -80.965561 650 356 132 -864
2021-08-03 16:04:01 GMT 35.203232 -80.965553 700 355 132 -864
2021-08-03 16:03:59 GMT 35.202000 -80.965431 700 355 130 -864
2021-08-03 16:03:58 GMT 35.201408 -80.965347 700 356 132 -864
2021-08-03 16:03:57 GMT 35.200199 -80.965263 700 353 134 -864
2021-08-03 16:03:55 GMT 35.199581 -80.965157 700 355 134 -864
2021-08-03 16:03:53 GMT 35.198349 -80.965050 750 355 132 -864
2021-08-03 16:03:52 GMT 35.197739 -80.964989 800 356 133 -864
2021-08-03 16:03:50 GMT 35.196480 -80.964943 800 354 131 -864
2021-08-03 16:03:48 GMT 35.195309 -80.964783 900 357 135 -576
2021-08-03 16:03:47 GMT 35.194660 -80.964737 900 358 132 -576
2021-08-03 16:03:46 GMT 35.194038 -80.964722 900 357 133 -576
2021-08-03 16:03:44 GMT 35.192810 -80.964668 900 355 130 -576
2021-08-03 16:03:43 GMT 35.191601 -80.964546 900 355 127 -576
2021-08-03 16:03:41 GMT 35.191002 -80.964508 900 356 127 -576
2021-08-03 16:03:40 GMT 35.190430 -80.964470 900 355 129 -576
2021-08-03 16:03:38 GMT 35.189289 -80.964279 1,000 357 136 -576
2021-08-03 16:03:37 GMT 35.188641 -80.964287 1,000 356 135 -576
2021-08-03 16:03:35 GMT 35.187340 -80.964241 975 354 126 -576
2021-08-03 16:03:34 GMT 35.186790 -80.964157 975 355 129 -576
2021-08-03 16:03:32 GMT 35.185619 -80.963997 1,000 357 135 -576
2021-08-03 16:03:31 GMT 35.184368 -80.963951 1,000 355 140 -576
2021-08-03 16:03:29 GMT 35.183632 -80.963913 1,050 355 129 -576
2021-08-03 16:03:28 GMT 35.183029 -80.963814 1,050 356 129 -576
2021-08-03 16:03:26 GMT 35.181850 -80.963753 1,100 354 134 -576
2021-08-03 16:03:24 GMT 35.180641 -80.963577 1,100 356 137 -576
2021-08-03 16:03:23 GMT 35.180012 -80.963547 1,100 355 137 -576
2021-08-03 16:03:22 GMT 35.179359 -80.963493 1,100 356 136 -576
2021-08-03 16:03:21 GMT 35.178761 -80.963448 1,200 355 140 -576
2021-08-03 16:03:19 GMT 35.177441 -80.963348 1,200 355 135 -576
2021-08-03 16:03:18 GMT 35.176819 -80.963272 1,200 356 136 -576
2021-08-03 16:03:17 GMT 35.176170 -80.963188 1,200 357 133 -576
2021-08-03 16:03:15 GMT 35.174961 -80.963142 1,200 356 135 -576
2021-08-03 16:03:14 GMT 35.173691 -80.963058 1,200 355 135 -576
2021-08-03 16:03:12 GMT 35.173069 -80.962997 1,250 355 134 -576
2021-08-03 16:03:11 GMT 35.172489 -80.962952 1,250 355 139 -576
2021-08-03 16:03:10 GMT 35.171150 -80.962822 1,300 356 132 -576
2021-08-03 16:03:08 GMT 35.169930 -80.962753 1,350 355 132 -576
2021-08-03 16:03:06 GMT 35.169331 -80.962708 1,350 354 133 -576
2021-08-03 16:03:05 GMT 35.168121 -80.962532 1,350 357 135 -576
2021-08-03 16:03:03 GMT 35.167500 -80.962502 1,350 357 134 -576
2021-08-03 16:03:01 GMT 35.166241 -80.962410 1,400 357 133 -576
2021-08-03 16:03:00 GMT 35.165619 -80.962410 1,400 355 133 -576
2021-08-03 16:02:58 GMT 35.164398 -80.962311 1,425 354 133 -576
2021-08-03 16:02:57 GMT 35.163750 -80.962250 1,425 354 130 -576
2021-08-03 16:02:55 GMT 35.162560 -80.962181 1,425 352 133 -576
2021-08-03 16:02:54 GMT 35.161911 -80.962051 1,500 354 129 -576
2021-08-03 16:02:52 GMT 35.160782 -80.961906 1,500 355 138 -576
2021-08-03 16:02:51 GMT 35.160130 -80.961861 1,500 354 137 -576
2021-08-03 16:02:49 GMT 35.158852 -80.961708 1,500 355 134 -832
2021-08-03 16:02:48 GMT 35.157589 -80.961571 1,600 355 131 -832
2021-08-03 16:02:46 GMT 35.156971 -80.961502 1,600 355 130 -832
2021-08-03 16:02:45 GMT 35.156380 -80.961433 1,600 356 131 -832
2021-08-03 16:02:44 GMT 35.155170 -80.961380 1,575 355 132 -832
2021-08-03 16:02:42 GMT 35.154610 -80.961311 1,575 355 135 -832
2021-08-03 16:02:40 GMT 35.153358 -80.961159 1,600 356 135 -832
2021-08-03 16:02:39 GMT 35.152740 -80.961121 1,600 356 135 -832
2021-08-03 16:02:38 GMT 35.151459 -80.961037 1,600 356 131 -832
2021-08-03 16:02:36 GMT 35.150848 -80.960968 1,600 356 131 -832
2021-08-03 16:02:35 GMT 35.149639 -80.960876 1,700 356 130 -832
2021-08-03 16:02:33 GMT 35.149052 -80.960861 1,700 356 130 -832
2021-08-03 16:02:32 GMT 35.148449 -80.960808 1,700 356 131 -832
2021-08-03 16:02:30 GMT 35.147270 -80.960693 1,900 356 133 -832
2021-08-03 16:02:29 GMT 35.146049 -80.960632 1,900 356 134 -832
2021-08-03 16:02:27 GMT 35.145432 -80.960579 1,900 356 135 -832
2021-08-03 16:02:26 GMT 35.144218 -80.960480 1,900 356 138 -832
2021-08-03 16:02:24 GMT 35.143581 -80.960426 1,900 356 138 -832
2021-08-03 16:02:22 GMT 35.142288 -80.960342 1,900 355 135 -832
2021-08-03 16:02:20 GMT 35.141041 -80.960251 1,900 355 138 -832
2021-08-03 16:02:19 GMT 35.140400 -80.960190 1,900 355 136 -832
2021-08-03 16:02:18 GMT 35.139751 -80.960121 1,900 355 136 -832
2021-08-03 16:02:16 GMT 35.138500 -80.959999 2,000 355 139 -832
2021-08-03 16:02:15 GMT 35.137901 -80.959938 2,000 356 143 -832
2021-08-03 16:02:14 GMT 35.136551 -80.959824 2,000 356 142 -832
2021-08-03 16:02:12 GMT 35.135899 -80.959763 2,000 356 143 -832
2021-08-03 16:02:10 GMT 35.134571 -80.959679 2,000 355 145 -832
2021-08-03 16:02:09 GMT 35.133888 -80.959618 2,000 355 146 -832
2021-08-03 16:02:07 GMT 35.132580 -80.959503 2,000 355 152 -832
2021-08-03 16:02:06 GMT 35.131180 -80.959358 2,000 355 154 -832
2021-08-03 16:02:04 GMT 35.130501 -80.959320 2,000 355 158 -832
2021-08-03 16:02:03 GMT 35.129799 -80.959251 2,000 355 160 -832
2021-08-03 16:02:01 GMT 35.128342 -80.959122 2,100 356 162 -832
2021-08-03 16:01:59 GMT 35.126831 -80.959007 2,100 355 160 -832
2021-08-03 16:01:58 GMT 35.126099 -80.958939 2,200 355 162 -832
2021-08-03 16:01:57 GMT 35.125381 -80.958870 2,200 356 166 -832
2021-08-03 16:01:56 GMT 35.123852 -80.958710 2,200 356 166 -832
2021-08-03 16:01:54 GMT 35.122330 -80.958603 2,300 356 169 -832
2021-08-03 16:01:52 GMT 35.121529 -80.958572 2,300 356 169 -832
2021-08-03 16:01:50 GMT 35.119961 -80.958473 2,300 356 170 -832
2021-08-03 16:01:49 GMT 35.119221 -80.958412 2,300 356 174 -832
2021-08-03 16:01:48 GMT 35.118450 -80.958344 2,300 356 176 -544
2021-08-03 16:01:46 GMT 35.116871 -80.958191 2,300 356 180 -544
2021-08-03 16:01:45 GMT 35.116020 -80.958138 2,300 356 178 -544
2021-08-03 16:01:43 GMT 35.114368 -80.958031 2,400 355 178 -544
2021-08-03 16:01:42 GMT 35.113560 -80.957962 2,400 355 180 -544
2021-08-03 16:01:40 GMT 35.111870 -80.957817 2,400 355 179 -544
2021-08-03 16:01:39 GMT 35.111080 -80.957748 2,500 355 181 -544
2021-08-03 16:01:38 GMT 35.109379 -80.957588 2,500 355 179 -544
2021-08-03 16:01:36 GMT 35.108528 -80.957527 2,500 355 178 -544
2021-08-03 16:01:35 GMT 35.107700 -80.957458 2,500 355 179 -544
2021-08-03 16:01:33 GMT 35.106049 -80.957298 2,500 355 182 -544
2021-08-03 16:01:32 GMT 35.105202 -80.957191 2,500 356 183 -544
2021-08-03 16:01:30 GMT 35.103561 -80.957047 2,600 356 191 -544
2021-08-03 16:01:29 GMT 35.102730 -80.956993 2,600 355 196 -544
2021-08-03 16:01:28 GMT 35.100971 -80.956841 2,700 356 188 -1088
2021-08-03 16:01:20 GMT 35.094662 -80.956245 2,700 356 192 -1024
2021-08-03 16:01:18 GMT 35.092804 -80.956062 2,725 357 196 -1024
2021-08-03 16:01:15 GMT 35.090008 -80.955849 2,775 357 196 -1024
2021-08-03 16:01:07 GMT 35.083099 -80.955284 2,900 357 196 -1088
2021-08-03 16:01:06 GMT 35.080399 -80.955055 2,950 357 195 -1024
2021-08-03 16:01:04 GMT 35.080399 -80.955055 2,950 357 195 -1024
2021-08-03 16:00:58 GMT 35.075809 -80.954643 3,050 357 188 -960
2021-08-03 16:00:54 GMT 35.072224 -80.954361 3,100 357 188 -960
2021-08-03 16:00:50 GMT 35.053837 -80.952812 3,175 357 187 -960
2021-08-03 16:00:33 GMT 35.053837 -80.952812 3,450 357 189 -1152
2021-08-03 16:00:30 GMT 35.051788 -80.952644 3,500 357 189 -1152
2021-08-03 16:00:24 GMT 35.045197 -80.952087 3,625 357 190 -1216
2021-08-03 16:00:20 GMT 35.042477 -80.951897 3,700 357 191 -1344
2021-08-03 16:00:10 GMT 35.033524 -80.951134 3,950 356 192 -1536
2021-08-03 16:00:09 GMT 35.025467 -80.950462 4,175 356 193 -1536
2021-08-03 15:59:58 GMT 35.022274 -80.950241 4,250 357 198 -1344
2021-08-03 15:59:54 GMT 35.017776 -80.949898 4,350 357 199 -1152
2021-08-03 15:59:49 GMT 35.014732 -80.949669 4,425 358 200 -832
2021-08-03 15:59:48 GMT 35.013702 -80.949623 4,425 358 200 -768
2021-08-03 15:59:41 GMT 35.007568 -80.949341 4,500 359 207 -896
2021-08-03 15:59:39 GMT 35.003540 -80.949226 4,575 359 208 -1088
2021-08-03 15:59:37 GMT 35.003540 -80.949226 4,575 359 211 -1280
2021-08-03 15:59:35 GMT 35.001984 -80.949173 4,600 359 211 -1280
2021-08-03 15:59:32 GMT 34.999184 -80.949097 4,675 357 214 -896
2021-08-03 15:59:30 GMT 34.997086 -80.949005 4,700 357 214 -896
2021-08-03 15:59:28 GMT 34.994434 -80.948753 4,725 356 216 -704
2021-08-03 15:59:26 GMT 34.992619 -80.948586 4,750 355 217 -640
2021-08-03 15:59:25 GMT 34.991642 -80.948463 4,775 354 219 -576
2021-08-03 15:59:23 GMT 34.989716 -80.948273 4,775 354 219 -576
2021-08-03 15:59:21 GMT 34.987289 -80.947937 4,800 355 218 -512
2021-08-03 15:59:16 GMT 34.983032 -80.947548 4,825 1 218 -384
2021-08-03 15:59:13 GMT 34.976257 -80.948723 4,850 13 219 -128
2021-08-03 15:59:10 GMT 34.975163 -80.949097 4,875 16 223 -128
2021-08-03 15:59:07 GMT 34.973160 -80.949783 4,875 16 226 -64
2021-08-03 15:59:06 GMT 34.972553 -80.950012 4,875 16 226 -64
2021-08-03 15:59:01 GMT 34.967606 -80.951859 4,875 17 241 -320
2021-08-03 15:59:00 GMT 34.965851 -80.952477 4,875 17 241 -320
2021-08-03 15:58:56 GMT 34.962616 -80.953712 4,900 17 241 -320
2021-08-03 15:58:55 GMT 34.960922 -80.954384 4,900 17 244 -384
2021-08-03 15:58:49 GMT 34.954193 -80.956963 4,950 17 251 -640
2021-08-03 15:58:48 GMT 34.952957 -80.957451 4,950 17 252 -704
2021-08-03 15:58:46 GMT 34.950623 -80.958366 4,975 17 254 -896
2021-08-03 15:58:45 GMT 34.946903 -80.959801 5,050 17 257 -1216
2021-08-03 15:58:43 GMT 34.946903 -80.959801 5,050 17 258 -1344
2021-08-03 15:58:41 GMT 34.942993 -80.961288 5,125 16 261 -1536
2021-08-03 15:58:35 GMT 34.938805 -80.962662 5,225 11 266 -1728
2021-08-03 15:58:29 GMT 34.931992 -80.964584 5,375 10 268 -1536
2021-08-03 15:58:28 GMT 34.930023 -80.964981 5,425 9 268 -1472
2021-08-03 15:58:24 GMT 34.924347 -80.966156 5,525 9 267 -1472
2021-08-03 15:58:22 GMT 34.922653 -80.966492 5,550 9 267 -1472
2021-08-03 15:58:19 GMT 34.917530 -80.967583 5,650 10 266 -1216
2021-08-03 15:58:17 GMT 34.915329 -80.968117 5,675 11 266 -1152
2021-08-03 15:58:16 GMT 34.915329 -80.968117 5,675 12 265 -1024
2021-08-03 15:58:14 GMT 34.912674 -80.968788 5,700 12 265 -1024
2021-08-03 15:58:13 GMT 34.911385 -80.969177 5,725 14 265 -960
2021-08-03 15:58:12 GMT 34.907803 -80.970322 5,775 17 266 -960
2021-08-03 15:58:10 GMT 34.907803 -80.970322 5,775 18 267 -896
2021-08-03 15:58:08 GMT 34.905579 -80.971252 5,800 22 268 -832
2021-08-03 15:58:07 GMT 34.904388 -80.971817 5,825 24 268 -832
2021-08-03 15:58:06 GMT 34.903378 -80.972328 5,825 28 268 -704
2021-08-03 15:58:04 GMT 34.901047 -80.973778 5,850 30 269 -576
2021-08-03 15:58:03 GMT 34.899948 -80.974510 5,850 31 269 -384
2021-08-03 15:58:02 GMT 34.897614 -80.976242 5,875 34 267 -128
2021-08-03 15:58:00 GMT 34.896790 -80.976921 5,875 37 268 0
2021-08-03 15:57:59 GMT 34.895187 -80.978378 5,875 37 268 0
2021-08-03 15:57:57 GMT 34.893509 -80.979942 5,875 38 268 0
2021-08-03 15:57:55 GMT 34.892532 -80.980850 5,875 39 267 -64
2021-08-03 15:57:54 GMT 34.887863 -80.985550 5,875 39 268 0
2021-08-03 15:57:50 GMT 34.887863 -80.985550 5,875 39 267 64
2021-08-03 15:57:47 GMT 34.883835 -80.989586 5,875 39 267 64
2021-08-03 15:57:46 GMT 34.882755 -80.990639 5,875 39 268 0
2021-08-03 15:57:44 GMT 34.881912 -80.991493 5,875 39 268 0
2021-08-03 15:57:42 GMT 34.879761 -80.993622 5,875 39 268 0
2021-08-03 15:57:41 GMT 34.878799 -80.994576 5,875 39 268 0
2021-08-03 15:57:40 GMT 34.877838 -80.995468 5,875 38 268 0
2021-08-03 15:57:38 GMT 34.875820 -80.997505 5,875 38 268 64
2021-08-03 15:57:37 GMT 34.874657 -80.998650 5,875 38 269 64
2021-08-03 15:57:36 GMT 34.872986 -81.000237 5,875 38 269 64
2021-08-03 15:57:34 GMT 34.872025 -81.001190 5,875 38 269 64
2021-08-03 15:57:33 GMT 34.869095 -81.004044 5,875 38 270 0
2021-08-03 15:57:31 GMT 34.869095 -81.004044 5,875 38 270 0
2021-08-03 15:57:30 GMT 34.867065 -81.006027 5,875 38 271 0
2021-08-03 15:57:28 GMT 34.866089 -81.007004 5,875 38 271 0
2021-08-03 15:57:27 GMT 34.864197 -81.008812 5,875 38 271 0
2021-08-03 15:57:25 GMT 34.863235 -81.009766 5,875 38 271 0
2021-08-03 15:57:23 GMT 34.861343 -81.011581 5,875 38 271 0
2021-08-03 15:57:22 GMT 34.860260 -81.012627 5,875 38 271 0
2021-08-03 15:57:21 GMT 34.859200 -81.013641 5,875 38 272 0
2021-08-03 15:57:19 GMT 34.856918 -81.015877 5,875 38 272 0
2021-08-03 15:57:18 GMT 34.855911 -81.016830 5,875 38 272 0
2021-08-03 15:57:15 GMT 34.853348 -81.019295 5,875 38 273 -64
2021-08-03 15:57:14 GMT 34.851974 -81.020638 5,875 38 273 -64
2021-08-03 15:57:13 GMT 34.850868 -81.021652 5,875 38 273 -128
2021-08-03 15:57:12 GMT 34.849892 -81.022629 5,875 38 273 -128
2021-08-03 15:57:08 GMT 34.845795 -81.026581 5,875 38 274 -128
2021-08-03 15:57:06 GMT 34.843826 -81.028488 5,900 38 274 -64
2021-08-03 15:57:05 GMT 34.841400 -81.030785 5,900 38 274 -64
2021-08-03 15:57:01 GMT 34.839432 -81.032692 5,900 38 274 -64
2021-08-03 15:57:00 GMT 34.837551 -81.034531 5,900 38 273 -192
2021-08-03 15:56:56 GMT 34.833847 -81.038124 5,900 38 273 -192
2021-08-03 15:56:55 GMT 34.832993 -81.038986 5,900 38 272 -320
2021-08-03 15:56:53 GMT 34.831596 -81.040306 5,900 38 272 -384
2021-08-03 15:56:51 GMT 34.829910 -81.041939 5,925 39 273 -704
2021-08-03 15:56:50 GMT 34.828537 -81.043282 5,925 39 273 -704
2021-08-03 15:56:48 GMT 34.826569 -81.045242 5,950 39 273 -704
2021-08-03 15:56:46 GMT 34.825012 -81.046814 5,975 39 274 -832
2021-08-03 15:56:42 GMT 34.817631 -81.054268 6,150 40 277 -1792
2021-08-03 15:56:39 GMT 34.816650 -81.055298 6,175 40 277 -1920
2021-08-03 15:56:34 GMT 34.812740 -81.059364 6,300 41 278 -2112
2021-08-03 15:56:31 GMT 34.807800 -81.064636 6,450 41 279 -2112
2021-08-03 15:56:29 GMT 34.807800 -81.064636 6,475 41 279 -2112
2021-08-03 15:56:28 GMT 34.806923 -81.065598 6,500 41 279 -2112
2021-08-03 15:56:27 GMT 34.805012 -81.067657 6,575 42 279 -2112
2021-08-03 15:56:24 GMT 34.803059 -81.069778 6,625 42 279 -2112
2021-08-03 15:56:21 GMT 34.800156 -81.073105 6,750 46 280 -2112
2021-08-03 15:56:15 GMT 34.794399 -81.080132 6,950 49 280 -2112
2021-08-03 15:56:11 GMT 34.791328 -81.084419 7,075 51 280 -2048
2021-08-03 15:56:10 GMT 34.790161 -81.086143 7,125 51 280 -2048
2021-08-03 15:56:08 GMT 34.789047 -81.087914 7,175 52 280 -1984
2021-08-03 15:56:05 GMT 34.786423 -81.091995 7,275 53 281 -2048
2021-08-03 15:56:03 GMT 34.784729 -81.094795 7,350 53 281 -2048
2021-08-03 15:56:00 GMT 34.782436 -81.098495 7,450 53 281 -2048
2021-08-03 15:55:59 GMT 34.780899 -81.101021 7,500 53 281 -1984
2021-08-03 15:55:57 GMT 34.780109 -81.102280 7,525 53 282 -1920
2021-08-03 15:55:53 GMT 34.776012 -81.108856 7,700 53 282 -1984
2021-08-03 15:55:50 GMT 34.774475 -81.111427 7,750 53 282 -1728
2021-08-03 15:55:47 GMT 34.772232 -81.115143 7,850 53 283 -1600
2021-08-03 15:55:46 GMT 34.771454 -81.116432 7,875 53 283 -1600
2021-08-03 15:55:44 GMT 34.769577 -81.119514 7,925 54 284 -1536
2021-08-03 15:55:43 GMT 34.768703 -81.120934 7,950 54 284 -1536
2021-08-03 15:55:42 GMT 34.767960 -81.122192 7,975 53 284 -1536
2021-08-03 15:55:39 GMT 34.766327 -81.124893 8,025 54 285 -1536
2021-08-03 15:55:36 GMT 34.764587 -81.127754 8,075 54 285 -1536
2021-08-03 15:55:35 GMT 34.763535 -81.129608 8,125 54 285 -1536
2021-08-03 15:55:34 GMT 34.762756 -81.130898 8,150 54 286 -1536
2021-08-03 15:55:31 GMT 34.760509 -81.134720 8,200 54 288 -1408
2021-08-03 15:55:30 GMT 34.759254 -81.136780 8,250 54 288 -1280
2021-08-03 15:55:27 GMT 34.756786 -81.141014 8,300 54 288 -1280
2021-08-03 15:55:25 GMT 34.755062 -81.143929 8,350 54 288 -1280
2021-08-03 15:55:24 GMT 34.753738 -81.146141 8,375 54 289 -1216
2021-08-03 15:55:22 GMT 34.752876 -81.147591 8,400 54 290 -1216
2021-08-03 15:55:21 GMT 34.752182 -81.148834 8,425 54 290 -1216
2021-08-03 15:55:19 GMT 34.750580 -81.151466 8,450 54 290 -1280
2021-08-03 15:55:18 GMT 34.749802 -81.152809 8,475 54 290 -1280
2021-08-03 15:55:15 GMT 34.747467 -81.156792 8,550 54 291 -1280
2021-08-03 15:55:13 GMT 34.745846 -81.159554 8,575 54 291 -1280
2021-08-03 15:55:10 GMT 34.743393 -81.163689 8,650 54 291 -1280
2021-08-03 15:55:07 GMT 34.741283 -81.167274 8,700 54 291 -1216
2021-08-03 15:55:06 GMT 34.740097 -81.169289 8,725 54 291 -1216
2021-08-03 15:55:04 GMT 34.738358 -81.172203 8,775 54 291 -1216
2021-08-03 15:55:02 GMT 34.737122 -81.174332 8,800 54 292 -1280
2021-08-03 15:55:00 GMT 34.735462 -81.177116 8,850 54 292 -1280
2021-08-03 15:54:56 GMT 34.732300 -81.182442 8,925 54 292 -1280
2021-08-03 15:54:54 GMT 34.731506 -81.183815 8,950 54 292 -1280
2021-08-03 15:54:45 GMT 34.724075 -81.196198 9,125 54 293 -1216
2021-08-03 15:54:34 GMT 34.715725 -81.210251 9,350 54 294 -1216
2021-08-03 15:54:25 GMT 34.707825 -81.223602 9,525 54 296 -1216
2021-08-03 15:54:15 GMT 34.699585 -81.237679 9,750 54 296 -1280
2021-08-03 15:54:04 GMT 34.690842 -81.252251 9,975 53 297 -1536
2021-08-03 15:53:48 GMT 34.677887 -81.273605 10,375 53 300 -1536
2021-08-03 15:53:43 GMT 34.674271 -81.279602 10,475 53 303 -1536
2021-08-03 15:53:34 GMT 34.666031 -81.292999 10,725 53 305 -1600
2021-08-03 15:53:23 GMT 34.656742 -81.308044 11,000 53 309 -1600
2021-08-03 15:53:14 GMT 34.648785 -81.320915 11,275 53 311 -1984
2021-08-03 15:53:03 GMT 34.640125 -81.335335 11,600 54 313 -2048
2021-08-03 15:52:53 GMT 34.631653 -81.350494 11,950 58 315 -2112
2021-08-03 15:52:42 GMT 34.624283 -81.366875 12,300 63 318 -2112
2021-08-03 15:52:33 GMT 34.617737 -81.382515 12,625 62 321 -2112
2021-08-03 15:52:23 GMT 34.610844 -81.398735 12,975 62 322 -2176
2021-08-03 15:52:12 GMT 34.603535 -81.414986 13,300 57 324 -2112
2021-08-03 15:52:01 GMT 34.593807 -81.431236 13,650 47 327 -2112
2021-08-03 15:51:52 GMT 34.583099 -81.443367 13,975 36 334 -2048
2021-08-03 15:51:42 GMT 34.570530 -81.453957 14,300 33 341 -2112
2021-08-03 15:51:32 GMT 34.557262 -81.464653 14,650 33 349 -2304
2021-08-03 15:51:22 GMT 34.543110 -81.476097 15,050 33 357 -2688
2021-08-03 15:51:11 GMT 34.528122 -81.488113 15,525 33 364 -2752
2021-08-03 15:51:06 GMT 34.520485 -81.494179 15,775 31 382 -1792
2021-08-03 15:51:01 GMT 34.513779 -81.499496 15,975 32 369 -3008
2021-08-03 15:50:53 GMT 34.502937 -81.507912 16,350 32 375 -3072
2021-08-03 15:50:49 GMT 34.494553 -81.514297 16,625 31 376 -3136
2021-08-03 15:50:23 GMT 34.457474 -81.541595 17,925 31 382 -1600
2021-08-03 15:50:14 GMT 34.444153 -81.551346 18,000 31 384 -448
2021-08-03 15:50:04 GMT 34.428497 -81.562782 18,000 31 383 0
2021-08-03 15:49:53 GMT 34.411606 -81.575111 18,000 31 382 0
2021-08-03 15:49:43 GMT 34.396935 -81.585846 18,000 31 382 0
2021-08-03 15:49:33 GMT 34.382412 -81.596436 18,000 31 380 0
2021-08-03 15:49:22 GMT 34.365921 -81.608459 18,000 31 382 0
2021-08-03 15:48:57 GMT 34.327526 -81.636543 18,025 31 383 -64
2021-08-03 15:48:51 GMT 34.317352 -81.643944 18,075 31 383 -640
2021-08-03 15:48:39 GMT 34.300644 -81.656166 18,300 31 385 -1792
2021-08-03 15:48:27 GMT 34.281601 -81.670006 18,675 31 388 -1984
2021-08-03 15:47:43 GMT 34.213120 -81.719727 19,975 31 401 -1792
2021-08-03 15:47:38 GMT 34.205109 -81.725502 20,100 30 402 -1600
2021-08-03 15:47:27 GMT 34.187210 -81.738449 20,375 31 402 -1664
2021-08-03 15:47:03 GMT 34.146881 -81.767654 21,025 31 403 -1600
2021-08-03 15:46:58 GMT 34.140472 -81.772247 21,125 30 404 -1600
2021-08-03 15:46:31 GMT 34.095154 -81.804932 21,825 30 404 -1600
2021-08-03 15:46:18 GMT 34.076843 -81.818100 21,975 30 404 -1536
2021-08-03 15:46:15 GMT 34.071671 -81.821747 22,175 30 404 -1536
2021-08-03 15:42:11 GMT 33.625580 -82.018044 29,250 16 470 -1856
2021-08-03 15:42:08 GMT 33.620956 -82.019608 29,250 16 470 -1856
2021-08-03 15:42:00 GMT 33.600475 -82.026733 29,525 16 475 -1920
2021-08-03 15:41:48 GMT 33.577896 -82.034622 29,850 16 481 -1856
2021-08-03 15:41:39 GMT 33.557877 -82.041641 30,125 16 487 -1856
2021-08-03 15:40:03 GMT 33.344528 -82.116241 31,000 16 502 -64
2021-08-03 15:39:55 GMT 33.326237 -82.122581 31,000 16 502 0
2021-08-03 15:39:48 GMT 33.311279 -82.127800 31,000 16 502 64
2021-08-03 15:39:37 GMT 33.286945 -82.136314 31,000 16 501 -64
2021-08-03 15:38:55 GMT 33.193981 -82.168655 31,000 16 499 -64
2021-08-03 15:38:52 GMT 33.187325 -82.170952 31,000 16 499 -64
2021-08-03 15:38:47 GMT 33.176243 -82.174820 31,000 16 499 -64
2021-08-03 15:38:38 GMT 33.156319 -82.181717 31,000 16 498 64
2021-08-03 15:38:34 GMT 33.147011 -82.184967 31,000 16 498 64
2021-08-03 15:38:28 GMT 33.133530 -82.189651 31,000 16 497 0
2021-08-03 15:38:23 GMT 33.122452 -82.193443 31,000 16 496 0
2021-08-03 15:38:18 GMT 33.112095 -82.197075 31,000 16 496 -64
2021-08-03 15:38:15 GMT 33.102173 -82.200531 31,000 16 496 0
2021-08-03 15:37:54 GMT 33.059116 -82.215347 31,000 16 495 0
2021-08-03 15:37:48 GMT 33.044357 -82.220413 31,000 16 494 -128
2021-08-03 15:37:38 GMT 33.022385 -82.228050 31,025 16 494 -64
2021-08-03 15:37:26 GMT 32.999084 -82.236069 31,000 16 493 64
2021-08-03 15:37:17 GMT 32.977158 -82.243599 31,000 16 492 -64
2021-08-03 15:37:07 GMT 32.955029 -82.251221 31,025 16 491 64
2021-08-03 15:37:00 GMT 32.938873 -82.256828 31,000 16 491 128
2021-08-03 15:36:56 GMT 32.931843 -82.259232 30,975 16 491 64
2021-08-03 15:36:50 GMT 32.917461 -82.264168 31,000 16 490 -192
2021-08-03 15:36:45 GMT 32.908291 -82.267303 31,025 16 490 -64
2021-08-03 15:36:40 GMT 32.895447 -82.271667 31,000 16 489 128
2021-08-03 15:36:32 GMT 32.879333 -82.277161 31,000 16 489 64
2021-08-03 15:36:16 GMT 32.841393 -82.290062 31,000 15 485 0
2021-08-03 15:36:09 GMT 32.829754 -82.294044 31,000 16 484 -128
2021-08-03 15:35:57 GMT 32.804077 -82.302704 31,000 15 484 64
2021-08-03 15:35:30 GMT 32.741684 -82.313362 31,000 1 477 64
2021-08-03 15:35:27 GMT 32.736832 -82.313469 31,000 1 478 0
2021-08-03 15:35:08 GMT 32.695454 -82.314674 31,000 1 478 0
2021-08-03 15:35:06 GMT 32.690781 -82.314789 31,000 1 479 0
2021-08-03 15:34:52 GMT 32.660446 -82.315620 31,000 1 479 0
2021-08-03 15:34:45 GMT 32.640938 -82.316132 31,000 1 479 -64
2021-08-03 15:34:32 GMT 32.614731 -82.316856 31,000 1 479 -128
2021-08-03 15:34:24 GMT 32.597412 -82.317360 31,000 1 480 0
2021-08-03 15:34:14 GMT 32.574097 -82.318031 31,000 1 480 0
2021-08-03 15:34:03 GMT 32.551895 -82.318687 31,000 1 480 64
2021-08-03 15:33:53 GMT 32.528980 -82.319321 31,000 1 481 0
2021-08-03 15:33:43 GMT 32.506264 -82.319939 31,000 1 481 -192
2021-08-03 15:33:32 GMT 32.481995 -82.320610 31,000 1 481 64
2021-08-03 15:33:23 GMT 32.459747 -82.321274 31,000 1 481 -64
2021-08-03 15:33:11 GMT 32.435669 -82.321930 31,000 1 481 -64
2021-08-03 15:33:02 GMT 32.414509 -82.322578 31,000 1 481 0
2021-08-03 15:32:52 GMT 32.390907 -82.323189 31,025 1 481 64
2021-08-03 15:32:40 GMT 32.367306 -82.323868 31,000 1 481 64
2021-08-03 15:32:31 GMT 32.344803 -82.324455 31,000 1 481 0
2021-08-03 15:31:47 GMT 32.248596 -82.327057 31,000 1 479 0
2021-08-03 15:31:39 GMT 32.228394 -82.327644 31,000 1 479 0
2021-08-03 15:31:28 GMT 32.206001 -82.328239 31,000 1 478 64
2021-08-03 15:31:12 GMT 32.171040 -82.329247 31,000 1 478 -64
2021-08-03 15:31:08 GMT 32.160007 -82.329529 31,000 1 477 64
2021-08-03 15:31:05 GMT 32.155121 -82.329697 31,000 1 477 64
2021-08-03 15:30:47 GMT 32.115189 -82.330772 31,000 1 477 -64
2021-08-03 15:30:43 GMT 32.106148 -82.331039 31,000 1 476 0
2021-08-03 15:30:35 GMT 32.090275 -82.331490 31,000 1 476 0
2021-08-03 15:30:25 GMT 32.068039 -82.332092 31,000 1 475 64
2021-08-03 15:30:16 GMT 32.045609 -82.332748 31,000 1 474 -128
2021-08-03 15:30:05 GMT 31.999969 -82.334068 31,000 1 473 64
2021-08-03 15:29:54 GMT 31.999969 -82.334068 31,000 1 473 0
2021-08-03 15:29:41 GMT 31.972635 -82.334793 31,000 1 472 0
2021-08-03 15:29:34 GMT 31.955132 -82.335297 31,000 1 472 64
2021-08-03 15:29:24 GMT 31.932413 -82.335915 31,000 1 472 0
2021-08-03 15:29:18 GMT 31.921057 -82.336197 31,000 1 472 0
2021-08-03 15:29:13 GMT 31.909882 -82.336487 31,000 1 473 0
2021-08-03 15:29:03 GMT 31.886627 -82.337143 31,000 1 475 64
2021-08-03 15:28:58 GMT 31.876738 -82.337425 31,000 1 475 64
2021-08-03 15:28:51 GMT 31.861954 -82.337807 31,000 1 477 0
2021-08-03 15:28:38 GMT 31.817139 -82.339012 31,000 1 483 0
2021-08-03 15:28:31 GMT 31.817139 -82.339012 31,000 1 483 0
2021-08-03 15:28:21 GMT 31.793839 -82.339615 31,000 1 486 0
2021-08-03 15:28:10 GMT 31.740711 -82.341049 31,000 1 490 -64
2021-08-03 15:27:58 GMT 31.740711 -82.341049 31,025 1 490 -64
2021-08-03 15:27:50 GMT 31.723907 -82.341537 31,000 1 490 -64
2021-08-03 15:27:39 GMT 31.700397 -82.342201 31,000 1 486 0
2021-08-03 15:27:30 GMT 31.677029 -82.342857 31,000 1 482 64
2021-08-03 15:27:19 GMT 31.653427 -82.343521 31,000 1 479 128
2021-08-03 15:27:09 GMT 31.630234 -82.344147 30,975 1 475 192
2021-08-03 15:26:57 GMT 31.606363 -82.344833 30,875 1 472 960
2021-08-03 15:26:44 GMT 31.577316 -82.345650 30,675 1 472 832
2021-08-03 15:26:35 GMT 31.555939 -82.346245 30,575 1 469 896
2021-08-03 15:26:26 GMT 31.537884 -82.346756 30,450 1 469 960
2021-08-03 15:26:17 GMT 31.518127 -82.347321 30,200 1 469 1024
2021-08-03 15:26:06 GMT 31.494032 -82.347969 30,125 1 468 896
2021-08-03 15:25:55 GMT 31.471710 -82.348564 30,000 1 468 768
2021-08-03 15:25:46 GMT 31.450058 -82.349152 29,850 1 467 1152
2021-08-03 15:25:34 GMT 31.425842 -82.349800 29,650 1 467 768
2021-08-03 15:25:25 GMT 31.403627 -82.350441 29,575 1 464 320
2021-08-03 15:25:12 GMT 31.378143 -82.351089 29,500 1 460 448
2021-08-03 15:25:02 GMT 31.356703 -82.351700 29,375 1 458 1088
2021-08-03 15:24:53 GMT 31.337402 -82.352226 29,200 1 458 1152
2021-08-03 15:24:42 GMT 31.315796 -82.352760 29,050 1 457 960
2021-08-03 15:24:31 GMT 31.290226 -82.353462 28,850 1 456 1024
2021-08-03 15:24:21 GMT 31.271484 -82.353996 28,725 1 455 896
2021-08-03 15:24:12 GMT 31.250015 -82.354538 28,575 1 453 896
2021-08-03 15:24:01 GMT 31.228226 -82.355186 28,425 1 451 1024
2021-08-03 15:23:51 GMT 31.206293 -82.355766 28,250 1 451 1024
2021-08-03 15:23:39 GMT 31.183762 -82.356369 28,075 1 449 832
2021-08-03 15:23:30 GMT 31.162811 -82.356911 27,950 1 447 832
2021-08-03 15:23:19 GMT 31.141119 -82.357529 27,775 1 445 1280
2021-08-03 15:23:08 GMT 31.119827 -82.358093 27,575 1 446 1152
2021-08-03 15:22:58 GMT 31.096941 -82.358734 27,425 1 444 832
2021-08-03 15:22:47 GMT 31.076458 -82.359283 27,250 1 442 1344
2021-08-03 15:22:38 GMT 31.054916 -82.359924 26,975 1 443 1536
2021-08-03 15:22:26 GMT 31.032932 -82.360489 26,800 1 443 704
2021-08-03 15:22:17 GMT 31.012253 -82.361053 26,700 1 439 704
2021-08-03 15:22:06 GMT 30.990942 -82.361649 26,525 1 437 1472
2021-08-03 15:21:55 GMT 30.969681 -82.362183 26,300 1 436 896
2021-08-03 15:21:45 GMT 30.949081 -82.362778 26,150 1 434 1280
2021-08-03 15:21:34 GMT 30.928003 -82.363350 25,950 1 434 1024
2021-08-03 15:21:24 GMT 30.905937 -82.363899 25,800 1 431 1088
2021-08-03 15:21:12 GMT 30.883392 -82.364502 25,550 1 430 1536
2021-08-03 15:21:04 GMT 30.865036 -82.365044 25,300 1 431 1472
2021-08-03 15:20:52 GMT 30.843521 -82.365578 25,125 1 429 896
2021-08-03 15:20:43 GMT 30.823494 -82.366096 24,975 1 427 1088
2021-08-03 15:20:32 GMT 30.803383 -82.366646 24,775 1 425 1472
2021-08-03 15:20:21 GMT 30.783051 -82.367249 24,500 1 425 1792
2021-08-03 15:20:12 GMT 30.761353 -82.367844 24,250 1 425 896
2021-08-03 15:20:00 GMT 30.721031 -82.368896 24,150 1 416 1344
2021-08-03 15:19:51 GMT 30.721031 -82.368896 24,050 1 416 1344
2021-08-03 15:19:40 GMT 30.700470 -82.369507 23,750 1 415 1088
2021-08-03 15:19:28 GMT 30.680206 -82.370049 23,525 1 415 1024
2021-08-03 15:19:18 GMT 30.661240 -82.370537 23,350 1 412 1216
2021-08-03 15:19:08 GMT 30.640123 -82.371094 23,100 1 410 1728
2021-08-03 15:18:57 GMT 30.620911 -82.371613 22,850 1 410 1280
2021-08-03 15:18:48 GMT 30.600649 -82.372139 22,650 1 407 1344
2021-08-03 15:18:37 GMT 30.581268 -82.372688 22,400 1 405 1536
2021-08-03 15:18:26 GMT 30.560427 -82.373184 22,150 1 403 1280
2021-08-03 15:18:15 GMT 30.541626 -82.373657 21,975 1 400 1344
2021-08-03 15:18:06 GMT 30.522905 -82.374168 21,700 1 399 1792
2021-08-03 15:17:55 GMT 30.503540 -82.374733 21,425 1 398 1536
2021-08-03 15:17:45 GMT 30.484406 -82.375275 21,200 1 396 1600
2021-08-03 15:17:34 GMT 30.465553 -82.375816 20,900 1 394 1920
2021-08-03 15:17:24 GMT 30.446514 -82.376366 20,625 1 393 1600
2021-08-03 15:17:14 GMT 30.426727 -82.376884 20,375 1 390 1408
2021-08-03 15:17:03 GMT 30.408480 -82.377411 20,100 1 389 2176
2021-08-03 15:16:53 GMT 30.389877 -82.377914 19,775 1 389 1728
2021-08-03 15:16:42 GMT 30.370632 -82.378456 19,475 1 387 1920
2021-08-03 15:16:32 GMT 30.351791 -82.378990 19,150 1 386 1856
2021-08-03 15:16:20 GMT 30.314346 -82.379959 18,850 1 383 2112
2021-08-03 15:16:11 GMT 30.314346 -82.379959 18,550 1 383 2112
2021-08-03 15:16:00 GMT 30.296057 -82.380432 18,200 1 383 2048
2021-08-03 15:15:50 GMT 30.277451 -82.380875 17,925 1 380 1408
2021-08-03 15:15:39 GMT 30.258675 -82.381363 17,725 1 374 1280
2021-08-03 15:15:28 GMT 30.241125 -82.381859 17,450 1 370 1984
2021-08-03 15:15:19 GMT 30.223160 -82.382324 17,125 1 368 1792
2021-08-03 15:15:08 GMT 30.205490 -82.382759 16,875 1 364 1600
2021-08-03 15:14:58 GMT 30.188004 -82.383240 16,550 1 361 2240
2021-08-03 15:14:46 GMT 30.169436 -82.383728 16,150 1 361 2240
2021-08-03 15:14:37 GMT 30.153048 -82.384171 15,800 1 359 2176
2021-08-03 15:14:25 GMT 30.135269 -82.384590 15,450 1 357 2112
2021-08-03 15:14:15 GMT 30.118601 -82.384995 15,150 1 353 1792
2021-08-03 15:14:04 GMT 30.100479 -82.385452 14,800 1 350 2112
2021-08-03 15:13:54 GMT 30.084641 -82.385826 14,550 1 345 1408
2021-08-03 15:13:45 GMT 30.067474 -82.386208 14,300 1 337 1664
2021-08-03 15:13:33 GMT 30.050720 -82.386635 14,000 1 331 1664
2021-08-03 15:13:23 GMT 30.034712 -82.387024 13,700 1 322 1728
2021-08-03 15:13:12 GMT 30.018494 -82.387390 13,400 1 318 1728
2021-08-03 15:13:03 GMT 30.004761 -82.387711 13,150 0 310 1664
2021-08-03 15:12:49 GMT 29.986908 -82.387817 12,750 359 302 2688
2021-08-03 15:12:42 GMT 29.974800 -82.386856 12,350 351 299 3136
2021-08-03 15:12:30 GMT 29.960741 -82.383286 11,750 345 300 3904
2021-08-03 15:12:20 GMT 29.947083 -82.379044 11,150 346 305 3776
2021-08-03 15:12:11 GMT 29.932623 -82.374611 10,575 345 308 2944
2021-08-03 15:11:59 GMT 29.917877 -82.370049 10,075 345 307 2880
2021-08-03 15:11:50 GMT 29.904039 -82.365685 9,650 345 304 2496
2021-08-03 15:11:39 GMT 29.889816 -82.361229 9,225 345 299 2752
2021-08-03 15:11:29 GMT 29.875549 -82.356804 8,725 345 296 3008
2021-08-03 15:11:17 GMT 29.860979 -82.352226 8,225 345 294 2816
2021-08-03 15:11:08 GMT 29.848410 -82.348236 7,825 345 289 2304
2021-08-03 15:10:57 GMT 29.834976 -82.343903 7,450 345 282 2048
2021-08-03 15:10:46 GMT 29.821564 -82.339569 7,150 345 271 2112
2021-08-03 15:09:34 GMT 29.733610 -82.327782 3,700 354 238

Making use of Plane Finder data

You are free to use the raw flight data, aircraft information and images provided in this report for your own purposes provided the data is correctly attributed to Plane Finder. We ask that you please credit Plane Finder and link to planefinder.net in close proximity to the content.

Optionally one of the following logos (no smaller then 150x24px) can be used and must link to planefinder.net

Embedding the Plane Finder map

You are welcome to embed the Plane Finder playback map on your website to offer visitors a more interactive experience. We suggest using the following HTML code:

<iframe src="//planefinder.net/data/report/AA5372-N543EA-7700-squawk-2021-08-03/map" width="800" height="600" seamless="seamless"></iframe>

Where our data comes from

Plane Finder has a global network of data feeds and antenna radars that receive data broadcast directly from aircraft. The primary technologies used are ADS-B and MLAT. We also show feeds from the FAA and a FLARM glider feed.

Click here to find out more about the Plane Finder network.

How we collect our data